Time;durP1;ratioP1;P1;durP2;ratioP2;P2;SDS_P1;SDS_P2;PMS_P1;PMS_P2;Temp;Humidity;BMP_temperature;BMP_pressure;BME280_temperature;BME280_humidity;BME280_pressure;Samples;Min_cycle;Max_cycle;Signal;HPM_P1;HPM_P2
2023/06/01 00:01:13;;;;;;;0.70;0.70;;;;;;;22.92;38.50;101172.81;4481627;28;21017;-59
2023/06/01 00:03:25;;;;;;;0.75;0.75;;;;;;;22.91;38.48;101183.47;4483090;28;20070;-59
2023/06/01 00:05:35;;;;;;;0.70;0.65;;;;;;;22.91;38.23;101182.66;4466969;28;20122;-58
2023/06/01 00:07:46;;;;;;;0.90;0.75;;;;;;;22.91;38.11;101183.47;4468549;28;20398;-58
2023/06/01 00:09:57;;;;;;;1.13;0.80;;;;;;;22.91;38.32;101179.78;4466797;28;20049;-59
2023/06/01 00:12:08;;;;;;;1.08;0.80;;;;;;;22.88;38.25;101184.22;4467356;28;20039;-58
2023/06/01 00:14:18;;;;;;;0.98;0.82;;;;;;;22.90;38.58;101187.56;4482460;28;21019;-60
2023/06/01 00:16:30;;;;;;;1.17;0.93;;;;;;;22.88;38.24;101183.41;4483024;28;20115;-59
2023/06/01 00:18:41;;;;;;;0.93;0.70;;;;;;;22.88;38.58;101177.66;4483163;28;20527;-58
2023/06/01 00:20:51;;;;;;;1.35;0.80;;;;;;;22.90;38.43;101175.22;4482812;28;20022;-59
2023/06/01 00:23:02;;;;;;;0.80;0.77;;;;;;;22.84;38.41;101171.78;4483705;28;20475;-59
2023/06/01 00:25:12;;;;;;;1.00;0.90;;;;;;;22.89;38.35;101167.78;4466506;28;20110;-58
2023/06/01 00:27:23;;;;;;;0.88;0.88;;;;;;;22.89;37.77;101179.31;4483638;28;20041;-59
2023/06/01 00:29:33;;;;;;;1.20;0.80;;;;;;;22.88;38.29;101177.66;4464983;28;20051;-58
2023/06/01 00:31:44;;;;;;;0.88;0.80;;;;;;;22.88;38.04;101175.56;4453991;28;20523;-59
2023/06/01 00:33:55;;;;;;;1.17;0.90;;;;;;;22.87;38.37;101173.91;4482868;28;20026;-58
2023/06/01 00:36:05;;;;;;;1.23;1.08;;;;;;;22.86;38.69;101180.88;4470293;28;20479;-59
2023/06/01 00:38:16;;;;;;;0.95;0.90;;;;;;;22.85;38.53;101170.56;4481207;28;20061;-59
2023/06/01 00:40:26;;;;;;;0.80;0.80;;;;;;;22.86;38.79;101175.13;4483161;28;20039;-59
2023/06/01 00:42:37;;;;;;;1.00;0.90;;;;;;;22.86;38.84;101175.13;4482166;28;20039;-56
2023/06/01 00:44:48;;;;;;;1.48;0.95;;;;;;;22.85;38.83;101179.19;4449950;28;20415;-57
2023/06/01 00:46:59;;;;;;;1.27;1.10;;;;;;;22.81;39.02;101174.56;4481167;28;20030;-56
2023/06/01 00:49:10;;;;;;;1.17;1.08;;;;;;;22.86;39.10;101175.13;4466940;28;20051;-57
2023/06/01 00:51:21;;;;;;;1.42;1.20;;;;;;;22.84;38.92;101176.69;4448745;28;20031;-56
2023/06/01 00:53:31;;;;;;;1.30;1.17;;;;;;;22.84;39.06;101173.81;4481704;28;20132;-55
2023/06/01 00:55:41;;;;;;;1.45;1.30;;;;;;;22.85;39.26;101178.38;4482524;28;20134;-56
2023/06/01 00:57:54;;;;;;;1.48;1.20;;;;;;;22.84;38.83;101177.53;4481225;28;20065;-56
2023/06/01 01:00:14;;;;;;;1.65;1.10;;;;;;;22.85;39.30;101181.25;4482226;28;21206;-56
2023/06/01 01:02:24;;;;;;;1.40;1.30;;;;;;;22.81;38.87;101171.69;4482317;28;20556;-56
2023/06/01 01:04:35;;;;;;;1.55;1.40;;;;;;;22.84;38.69;101176.69;4482462;28;20037;-56
2023/06/01 01:07:00;;;;;;;2.15;1.50;;;;;;;22.83;38.86;101175.03;4481064;28;20034;-56
2023/06/01 01:09:27;;;;;;;1.60;1.40;;;;;;;22.82;38.96;101167.59;4481688;28;20069;-56
2023/06/01 01:11:41;;;;;;;1.85;1.42;;;;;;;22.83;38.76;101178.75;4472611;28;20598;-55
2023/06/01 01:14:07;;;;;;;1.60;1.50;;;;;;;22.84;38.97;101176.69;4465328;28;20839;-56
2023/06/01 01:16:27;;;;;;;1.80;1.40;;;;;;;22.80;38.82;101164.25;4483404;28;21024;-57
2023/06/01 01:19:08;;;;;;;1.75;1.55;;;;;;;22.82;39.09;101173.34;4481923;28;20027;-56
2023/06/01 01:21:27;;;;;;;1.90;1.70;;;;;;;22.81;39.10;101172.53;4453694;28;20043;-56
2023/06/01 01:23:58;;;;;;;1.70;1.60;;;;;;;22.80;39.23;101170.00;4482035;28;20836;-56
2023/06/01 01:26:29;;;;;;;2.05;1.60;;;;;;;22.79;39.23;101169.16;4460874;28;20036;-55
2023/06/01 01:28:52;;;;;;;1.90;1.77;;;;;;;22.80;39.08;101172.91;4480190;28;20053;-55
2023/06/01 01:31:08;;;;;;;1.92;1.60;;;;;;;22.80;39.08;101175.78;4441030;28;20147;-56
2023/06/01 01:33:20;;;;;;;2.22;1.92;;;;;;;22.79;39.07;101174.94;4465078;28;20034;-56
2023/06/01 01:35:32;;;;;;;2.00;1.80;;;;;;;22.78;39.09;101183.94;4480280;28;20031;-54
2023/06/01 01:37:53;;;;;;;2.17;1.80;;;;;;;22.75;38.98;101185.50;4463981;28;20030;-56
2023/06/01 01:40:05;;;;;;;2.13;1.70;;;;;;;22.79;38.80;101192.19;4482390;28;20137;-56
2023/06/01 01:42:15;;;;;;;2.15;1.90;;;;;;;22.78;39.18;101183.94;4465542;28;20045;-56
2023/06/01 01:44:26;;;;;;;1.83;1.70;;;;;;;22.78;39.02;101183.94;4450577;28;20043;-57
2023/06/01 01:47:06;;;;;;;2.15;1.80;;;;;;;22.77;38.79;101188.03;4464498;28;20537;-55
2023/06/01 01:49:30;;;;;;;3.33;2.03;;;;;;;22.74;38.55;101185.88;4464747;28;20402;-56
2023/06/01 01:51:51;;;;;;;2.03;1.70;;;;;;;22.77;38.61;101182.25;4480818;28;20081;-55
2023/06/01 01:54:04;;;;;;;2.03;1.83;;;;;;;22.75;38.79;101184.66;4479904;28;20447;-56
2023/06/01 01:56:15;;;;;;;2.10;1.90;;;;;;;22.77;38.63;101190.91;4479356;28;20065;-56
2023/06/01 01:58:27;;;;;;;2.20;1.92;;;;;;;22.77;38.47;101194.59;4482417;28;20306;-56
2023/06/01 02:00:38;;;;;;;2.70;2.03;;;;;;;22.76;38.17;101183.44;4451598;28;20028;-56
2023/06/01 02:02:48;;;;;;;2.08;1.80;;;;;;;22.76;38.34;101189.22;4480671;28;20038;-57
2023/06/01 02:05:00;;;;;;;1.98;1.77;;;;;;;22.75;38.36;101190.41;4452120;28;20047;-57
2023/06/01 02:07:10;;;;;;;2.50;2.20;;;;;;;22.74;38.42;101188.75;4464623;28;20034;-57
2023/06/01 02:09:21;;;;;;;2.20;1.90;;;;;;;22.76;38.08;101197.84;4465514;28;20455;-58
2023/06/01 02:11:33;;;;;;;2.10;1.90;;;;;;;22.75;37.85;101196.19;4466461;28;20567;-58
2023/06/01 02:13:44;;;;;;;2.40;1.98;;;;;;;22.72;38.08;101191.97;4463906;28;20070;-57
2023/06/01 02:15:55;;;;;;;2.78;2.22;;;;;;;22.72;38.02;101191.16;4481866;28;20037;-57
2023/06/01 02:18:07;;;;;;;2.05;1.85;;;;;;;22.74;37.59;101188.75;4465936;28;20063;-57
2023/06/01 02:20:17;;;;;;;2.45;1.95;;;;;;;22.74;37.76;101194.53;4465119;28;20634;-57
2023/06/01 02:22:28;;;;;;;2.55;2.05;;;;;;;22.73;37.51;101192.81;4465810;28;20062;-57
2023/06/01 02:24:39;;;;;;;2.47;2.05;;;;;;;22.74;37.56;101191.63;4479307;28;20040;-58
2023/06/01 02:26:51;;;;;;;2.63;2.10;;;;;;;22.74;37.73;101188.75;4464234;28;20039;-58
2023/06/01 02:29:04;;;;;;;2.08;1.88;;;;;;;22.73;37.67;101189.94;4480518;28;20047;-58
2023/06/01 02:31:15;;;;;;;2.47;1.90;;;;;;;22.71;37.68;101193.19;4464045;28;20035;-57
2023/06/01 02:33:26;;;;;;;2.78;2.10;;;;;;;22.72;37.49;101197.72;4446984;28;20139;-58
2023/06/01 02:35:36;;;;;;;2.72;2.10;;;;;;;22.72;37.27;101197.72;4464519;28;20499;-57
2023/06/01 02:37:48;;;;;;;2.30;2.00;;;;;;;22.72;37.06;101200.59;4465399;28;20095;-57
2023/06/01 02:39:58;;;;;;;2.20;2.00;;;;;;;22.72;36.84;101196.91;4482312;28;20125;-58
2023/06/01 02:42:09;;;;;;;2.05;1.85;;;;;;;22.72;37.17;101199.78;4482833;28;20042;-57
2023/06/01 02:44:19;;;;;;;2.22;1.98;;;;;;;22.71;37.04;101195.22;4468019;28;20110;-60
2023/06/01 02:46:30;;;;;;;2.15;1.95;;;;;;;22.71;37.41;101201.81;4455418;28;20049;-58
2023/06/01 02:48:40;;;;;;;2.67;1.98;;;;;;;22.71;37.33;101201.81;4468141;28;20039;-58
2023/06/01 02:50:51;;;;;;;2.85;2.22;;;;;;;22.70;37.11;101197.28;4450530;28;20122;-57
2023/06/01 02:53:02;;;;;;;2.15;1.92;;;;;;;22.70;37.51;101199.31;4466693;28;20400;-57
2023/06/01 02:55:12;;;;;;;2.25;2.05;;;;;;;22.70;37.60;101199.31;4484081;28;20368;-57
2023/06/01 02:57:46;;;;;;;2.45;2.15;;;;;;;22.70;37.27;101200.16;4474823;28;20134;-57
2023/06/01 02:59:56;;;;;;;3.15;2.03;;;;;;;22.70;37.65;101200.16;4482800;28;20708;-58
2023/06/01 03:02:07;;;;;;;2.28;2.00;;;;;;;22.70;37.22;101190.69;4483653;28;20062;-57
2023/06/01 03:04:18;;;;;;;2.50;2.10;;;;;;;22.70;37.54;101199.31;4483472;28;20045;-58
2023/06/01 03:06:31;;;;;;;2.35;2.08;;;;;;;22.70;37.77;101202.19;4462582;28;20041;-57
2023/06/01 03:08:45;;;;;;;2.47;2.20;;;;;;;22.69;37.77;101197.66;4474303;28;20546;-57
2023/06/01 03:11:13;;;;;;;3.03;2.17;;;;;;;22.69;37.55;101204.22;4458782;28;20102;-57
2023/06/01 03:13:24;;;;;;;2.35;2.03;;;;;;;22.68;37.91;101208.31;4480119;28;20100;-57
2023/06/01 03:15:37;;;;;;;2.60;2.22;;;;;;;22.67;37.44;101202.94;4483913;28;20031;-58
2023/06/01 03:17:47;;;;;;;2.30;2.10;;;;;;;22.68;37.89;101202.56;4455677;28;20594;-57
2023/06/01 03:19:58;;;;;;;2.28;1.90;;;;;;;22.66;37.61;101204.16;4456266;28;20070;-57
2023/06/01 03:22:09;;;;;;;2.10;1.90;;;;;;;22.67;37.91;101197.19;4468207;28;20034;-58
2023/06/01 03:24:21;;;;;;;2.72;2.03;;;;;;;22.68;37.70;101193.09;4466576;28;20038;-57
2023/06/01 03:26:31;;;;;;;2.30;2.10;;;;;;;22.68;37.98;101199.69;4467236;28;20046;-57
2023/06/01 03:28:42;;;;;;;3.03;2.20;;;;;;;22.67;37.98;101200.91;4465540;28;20674;-57
2023/06/01 03:30:52;;;;;;;2.80;2.28;;;;;;;22.67;38.21;101194.31;4466533;28;20397;-57
2023/06/01 03:33:03;;;;;;;2.78;2.30;;;;;;;22.67;37.99;101200.06;4461813;28;20042;-57
2023/06/01 03:35:14;;;;;;;2.28;2.05;;;;;;;22.66;38.23;101199.22;4471438;28;20097;-57
2023/06/01 03:37:26;;;;;;;2.40;1.95;;;;;;;22.61;37.98;101187.97;4467211;28;20477;-57
2023/06/01 03:39:36;;;;;;;3.40;2.40;;;;;;;22.66;37.99;101193.44;4455214;28;20049;-58
2023/06/01 03:41:48;;;;;;;2.75;2.17;;;;;;;22.63;37.81;101187.63;4466910;28;20035;-57
2023/06/01 03:43:59;;;;;;;2.15;1.95;;;;;;;22.65;37.73;101190.94;4482291;28;20038;-57
2023/06/01 03:46:10;;;;;;;2.28;2.03;;;;;;;22.66;38.24;101192.63;4465615;28;20050;-57
2023/06/01 03:48:21;;;;;;;2.72;2.10;;;;;;;22.64;37.94;101190.13;4450165;28;20551;-57
2023/06/01 03:50:32;;;;;;;2.38;2.17;;;;;;;22.65;37.50;101202.44;4465285;28;20035;-58
2023/06/01 03:52:47;;;;;;;2.75;2.10;;;;;;;22.64;37.48;101195.03;4463517;28;20035;-57
2023/06/01 03:55:08;;;;;;;2.67;2.22;;;;;;;22.64;37.54;101197.91;4448445;28;20799;-58
2023/06/01 03:57:40;;;;;;;2.22;2.03;;;;;;;22.62;37.70;101201.16;4480491;28;20039;-57
2023/06/01 03:59:51;;;;;;;2.63;2.20;;;;;;;22.63;37.61;101199.94;4465958;28;20039;-57
2023/06/01 04:02:02;;;;;;;2.90;2.08;;;;;;;22.62;37.56;101201.16;4454337;28;20094;-57
2023/06/01 04:04:16;;;;;;;2.30;2.10;;;;;;;22.62;37.17;101203.19;4454389;28;20174;-58
2023/06/01 04:06:29;;;;;;;2.10;1.75;;;;;;;22.61;36.89;101202.34;4465902;28;20059;-58
2023/06/01 04:08:47;;;;;;;2.50;1.77;;;;;;;22.62;37.26;101204.03;4481593;28;20038;-57
2023/06/01 04:10:58;;;;;;;1.73;1.52;;;;;;;22.61;36.74;101207.28;4465367;28;20035;-58
2023/06/01 04:13:08;;;;;;;2.08;1.67;;;;;;;22.63;36.76;101216.41;4464571;28;20035;-57
2023/06/01 04:15:20;;;;;;;1.88;1.50;;;;;;;22.61;36.87;101218.78;4465151;28;20043;-57
2023/06/01 04:17:31;;;;;;;2.10;1.70;;;;;;;22.62;36.75;101211.81;4466277;28;20089;-57
2023/06/01 04:19:41;;;;;;;1.98;1.73;;;;;;;22.59;36.90;101209.69;4449343;28;20146;-58
2023/06/01 04:21:54;;;;;;;1.77;1.65;;;;;;;22.62;36.73;101214.69;4480977;28;20036;-57
2023/06/01 04:24:05;;;;;;;1.98;1.73;;;;;;;22.53;37.15;101199.66;4448884;28;20035;-56
2023/06/01 04:26:17;;;;;;;1.80;1.60;;;;;;;22.61;36.78;101213.84;4450597;28;20036;-57
2023/06/01 04:28:29;;;;;;;1.67;1.50;;;;;;;22.57;37.34;101212.06;4466318;28;20050;-57
2023/06/01 04:30:44;;;;;;;2.00;1.80;;;;;;;22.60;37.33;101217.09;4465109;28;20033;-57
2023/06/01 04:32:54;;;;;;;1.67;1.55;;;;;;;22.58;37.31;101208.03;4461185;28;20058;-58
2023/06/01 04:35:07;;;;;;;1.95;1.70;;;;;;;22.59;37.15;101216.28;4464317;28;20108;-58
2023/06/01 04:37:21;;;;;;;1.95;1.75;;;;;;;22.57;37.34;101212.94;4463718;28;20031;-57
2023/06/01 04:39:34;;;;;;;1.92;1.70;;;;;;;22.59;36.84;101216.28;4450469;28;20071;-57
2023/06/01 04:41:45;;;;;;;2.65;1.67;;;;;;;22.51;37.14;101202.00;4466094;28;20086;-58
2023/06/01 04:43:58;;;;;;;1.75;1.60;;;;;;;22.58;37.14;101213.78;4466147;28;20140;-57
2023/06/01 04:46:09;;;;;;;2.85;1.80;;;;;;;22.58;37.07;101211.72;4464313;28;20094;-54
2023/06/01 04:48:21;;;;;;;2.10;1.63;;;;;;;22.59;37.05;101215.44;4465921;28;20042;-58
2023/06/01 04:50:41;;;;;;;1.88;1.70;;;;;;;22.57;36.92;101207.16;4463752;28;20045;-59
2023/06/01 04:52:52;;;;;;;1.95;1.70;;;;;;;22.57;36.89;101209.19;4483951;28;20605;-57
2023/06/01 04:55:04;;;;;;;2.13;1.83;;;;;;;22.55;36.92;101203.81;4466139;28;20030;-57
2023/06/01 04:57:16;;;;;;;2.50;1.95;;;;;;;22.55;37.05;101203.00;4452926;28;20035;-57
2023/06/01 04:59:26;;;;;;;3.05;1.90;;;;;;;22.55;36.84;101205.88;4466581;28;20042;-57
2023/06/01 05:01:38;;;;;;;1.90;1.55;;;;;;;22.52;37.61;101203.69;4467557;28;20046;-57
2023/06/01 05:03:49;;;;;;;2.00;1.60;;;;;;;22.49;37.88;101204.41;4466385;28;20047;-57
2023/06/01 05:06:00;;;;;;;2.00;1.80;;;;;;;22.53;37.32;101205.41;4465771;28;21033;-57
2023/06/01 05:08:10;;;;;;;2.45;1.83;;;;;;;22.53;37.38;101208.28;4465191;28;20644;-57
2023/06/01 05:10:21;;;;;;;3.22;1.85;;;;;;;22.52;37.60;101204.56;4465218;28;20041;-57
2023/06/01 05:12:33;;;;;;;2.08;1.80;;;;;;;22.52;37.29;101209.47;4465077;28;20098;-57
2023/06/01 05:14:44;;;;;;;2.08;1.73;;;;;;;22.52;36.78;101203.69;4465432;28;20125;-58
2023/06/01 05:16:55;;;;;;;2.13;1.70;;;;;;;22.50;36.85;101201.16;4454659;28;20276;-57
2023/06/01 05:19:06;;;;;;;2.40;1.77;;;;;;;22.50;36.67;101206.91;4479986;28;20604;-58
2023/06/01 05:21:18;;;;;;;1.60;1.23;;;;;;;22.52;37.50;101212.34;4469478;28;20042;-57
2023/06/01 05:23:29;;;;;;;1.55;1.40;;;;;;;22.51;41.37;101208.59;4466164;28;20046;-57
2023/06/01 05:25:39;;;;;;;1.40;1.30;;;;;;;22.50;40.54;101206.09;4463925;28;20109;-59
2023/06/01 05:27:50;;;;;;;1.60;1.27;;;;;;;22.50;40.73;101211.84;4464362;28;20030;-57
2023/06/01 05:30:00;;;;;;;1.63;1.40;;;;;;;22.50;40.66;101208.97;4464940;28;20375;-57
2023/06/01 05:32:11;;;;;;;1.38;1.20;;;;;;;22.49;41.63;101210.16;4465961;28;20038;-59
2023/06/01 05:34:22;;;;;;;1.38;1.23;;;;;;;22.50;42.78;101198.28;4481553;28;20039;-57
2023/06/01 05:36:33;;;;;;;1.30;1.20;;;;;;;22.50;42.50;101201.16;4466696;28;20994;-59
2023/06/01 05:38:44;;;;;;;1.50;1.20;;;;;;;22.43;42.24;101195.22;4464501;28;20133;-58
2023/06/01 05:40:56;;;;;;;1.60;1.30;;;;;;;22.46;41.47;101199.38;4465800;28;20699;-58
2023/06/01 05:43:07;;;;;;;1.45;1.33;;;;;;;22.50;41.15;101211.84;4465207;28;20195;-61
2023/06/01 05:45:18;;;;;;;1.20;1.00;;;;;;;22.47;42.63;101206.84;4461083;28;20667;-58
2023/06/01 05:47:28;;;;;;;1.70;1.20;;;;;;;22.49;41.77;101210.16;4447528;28;20750;-58
2023/06/01 05:49:39;;;;;;;1.50;1.40;;;;;;;22.49;41.57;101215.91;4465742;28;20888;-58
2023/06/01 05:51:51;;;;;;;1.90;1.48;;;;;;;22.47;39.73;101216.28;4464157;28;20078;-57
2023/06/01 05:54:02;;;;;;;1.83;1.30;;;;;;;22.48;40.38;101208.50;4464397;28;20057;-57
2023/06/01 05:56:13;;;;;;;1.95;1.33;;;;;;;22.48;40.45;101220.00;4465324;28;20031;-58
2023/06/01 05:58:23;;;;;;;2.17;1.40;;;;;;;22.47;40.71;101216.28;4464793;28;20423;-57
2023/06/01 06:00:36;;;;;;;1.80;1.20;;;;;;;22.46;40.62;101217.50;4465967;28;20117;-58
2023/06/01 06:02:47;;;;;;;1.92;1.55;;;;;;;22.46;39.77;101216.66;4477309;28;20065;-57
2023/06/01 06:04:57;;;;;;;1.42;1.10;;;;;;;22.46;40.83;101216.66;4465625;28;20216;-57
2023/06/01 06:07:08;;;;;;;1.30;1.20;;;;;;;22.47;41.10;101218.34;4479581;28;20049;-57
2023/06/01 06:09:18;;;;;;;1.55;1.20;;;;;;;22.46;41.36;101206.00;4444186;28;20043;-57
2023/06/01 06:11:29;;;;;;;1.40;1.30;;;;;;;22.46;41.53;101210.91;4480521;28;20049;-57
2023/06/01 06:13:39;;;;;;;1.60;1.25;;;;;;;22.46;41.86;101211.75;4463545;28;20043;-57
2023/06/01 06:15:50;;;;;;;1.60;1.20;;;;;;;22.46;41.20;101216.66;4481509;28;20037;-58
2023/06/01 06:18:00;;;;;;;1.50;1.13;;;;;;;22.50;42.09;101206.91;4483318;28;20042;-57
2023/06/01 06:20:11;;;;;;;2.17;1.65;;;;;;;22.48;41.35;101214.25;4482641;28;20039;-57
2023/06/01 06:22:22;;;;;;;1.50;1.40;;;;;;;22.47;40.81;101213.41;4466514;28;20038;-58
2023/06/01 06:24:32;;;;;;;1.30;1.20;;;;;;;22.46;41.12;101216.66;4482668;28;20037;-57
2023/06/01 06:26:42;;;;;;;1.73;1.40;;;;;;;22.46;40.09;101211.75;4483987;28;20125;-57
2023/06/01 06:28:53;;;;;;;1.80;1.55;;;;;;;22.41;40.32;101208.28;4482456;28;20110;-57
2023/06/01 06:31:03;;;;;;;1.75;1.50;;;;;;;22.46;40.37;101216.66;4482403;28;20902;-59
2023/06/01 06:33:14;;;;;;;1.98;1.60;;;;;;;22.44;40.90;101208.38;4483499;28;20038;-59
2023/06/01 06:45:06;;;;;;;2.13;1.58;;;;;;;22.44;39.74;101214.13;4900260;22;20507;-60
2023/06/01 07:55:27;;;;;;;2.78;2.47;;;;;;;22.45;39.41;101233.09;3649501;22;20061;-48
2023/06/01 07:57:39;;;;;;;2.13;1.92;;;;;;;22.29;39.65;101205.44;4530121;23;20099;-50
2023/06/01 07:59:50;;;;;;;2.75;2.50;;;;;;;22.28;39.09;101204.59;4490951;28;20069;-56
2023/06/01 08:02:01;;;;;;;3.40;2.67;;;;;;;22.41;38.71;101225.53;4518083;23;20058;-48
2023/06/01 08:04:12;;;;;;;2.40;2.20;;;;;;;22.31;39.30;101203.06;4463134;28;20047;-47
2023/06/01 08:06:23;;;;;;;2.47;2.22;;;;;;;22.39;39.65;101216.44;4458062;28;20070;-56
2023/06/01 08:13:27;;;;;;;2.88;2.50;;;;;;;22.35;38.62;101209.75;4792345;22;19935;-46
2023/06/01 08:15:38;;;;;;;2.60;2.40;;;;;;;22.40;38.86;101206.59;4524436;28;20067;-53
2023/06/01 08:17:50;;;;;;;2.63;2.30;;;;;;;22.16;39.14;101167.28;4508066;28;20528;-48
2023/06/01 08:20:06;;;;;;;2.80;2.50;;;;;;;22.42;39.07;101207.91;4480468;28;20125;-50
2023/06/01 08:22:17;;;;;;;2.95;2.42;;;;;;;22.44;38.26;101213.31;4510679;28;20061;-52
2023/06/01 08:24:28;;;;;;;2.47;2.28;;;;;;;22.46;39.27;101210.91;4487443;28;20158;-48
2023/06/01 08:26:39;;;;;;;2.33;2.10;;;;;;;22.47;39.68;101218.34;4507879;28;20124;-45
2023/06/01 08:28:52;;;;;;;2.78;2.47;;;;;;;22.46;39.89;101216.66;4507193;28;20145;-47
2023/06/01 08:31:03;;;;;;;2.80;2.45;;;;;;;22.33;39.52;101189.13;4508565;28;20786;-49
2023/06/01 08:33:15;;;;;;;2.40;2.20;;;;;;;22.46;39.47;101213.78;4509313;28;20042;-48
2023/06/01 08:35:25;;;;;;;3.88;2.38;;;;;;;22.31;39.55;101185.78;4481011;28;20024;-50
2023/06/01 08:37:36;;;;;;;3.85;2.40;;;;;;;22.46;39.36;101216.66;4513775;28;20019;-51
2023/06/01 08:39:47;;;;;;;2.75;2.50;;;;;;;22.40;39.37;101204.56;4533547;28;20022;-50
2023/06/01 08:42:07;;;;;;;3.70;2.70;;;;;;;22.39;39.50;101211.50;4500826;28;20073;-57
2023/06/01 08:44:22;;;;;;;2.90;2.40;;;;;;;22.30;38.92;101189.84;4501234;28;20033;-55
2023/06/01 08:46:34;;;;;;;3.50;2.50;;;;;;;22.41;39.23;101209.13;4517909;28;20021;-52
2023/06/01 08:48:45;;;;;;;3.22;2.67;;;;;;;22.42;38.92;101215.72;4539825;23;20599;-69
2023/06/01 08:50:56;;;;;;;3.05;2.53;;;;;;;22.41;39.30;101205.41;4475162;28;20441;-69
2023/06/01 08:53:07;;;;;;;2.78;2.17;;;;;;;22.46;39.76;101211.75;4491230;28;20577;-70
2023/06/01 08:55:18;;;;;;;3.90;2.38;;;;;;;22.41;40.13;101203.38;4508331;28;20034;-70
2023/06/01 09:33:10;;;;;;;2.83;2.28;;;;;;;22.45;39.71;101191.97;4510272;23;20058;-61
2023/06/01 09:35:41;;;;;;;3.03;2.30;;;;;;;22.45;39.45;101195.69;4469208;28;20154;-62
2023/06/01 09:37:56;;;;;;;2.60;2.20;;;;;;;22.45;39.39;101197.72;4482944;28;20038;-62
2023/06/01 09:40:17;;;;;;;2.75;1.98;;;;;;;22.43;39.48;101194.38;4484236;28;20041;-62
2023/06/01 09:42:32;;;;;;;3.17;2.38;;;;;;;22.42;39.34;101189.84;4486817;28;20053;-61
2023/06/01 09:44:43;;;;;;;2.55;2.20;;;;;;;22.42;39.78;101193.53;4499429;28;20582;-61
2023/06/01 09:47:02;;;;;;;2.22;1.80;;;;;;;22.37;40.30;101178.56;4499822;28;20042;-61
2023/06/01 09:49:19;;;;;;;2.65;2.10;;;;;;;22.38;39.64;101174.50;4491618;28;20092;-61
2023/06/01 09:51:31;;;;;;;2.70;2.30;;;;;;;22.41;39.81;101174.59;4503621;28;20629;-61
2023/06/01 09:53:42;;;;;;;2.58;1.85;;;;;;;22.36;39.99;101171.97;4501430;28;20034;-61
2023/06/01 09:56:01;;;;;;;3.03;2.30;;;;;;;22.36;39.91;101162.53;4501553;28;20034;-62
2023/06/01 09:58:20;;;;;;;3.10;2.20;;;;;;;22.42;39.96;101175.44;4502240;28;20042;-61
2023/06/01 10:00:33;;;;;;;2.58;2.30;;;;;;;22.42;40.21;101175.44;4500875;28;20038;-61
2023/06/01 10:02:43;;;;;;;3.03;2.30;;;;;;;22.40;39.89;101174.97;4502004;28;20080;-61
2023/06/01 10:04:58;;;;;;;2.50;2.30;;;;;;;22.40;40.18;101174.97;4494344;28;20116;-61
2023/06/01 10:07:11;;;;;;;3.13;2.40;;;;;;;22.39;39.92;101161.81;4499214;28;20593;-62
2023/06/01 10:09:24;;;;;;;3.55;2.30;;;;;;;22.41;39.81;101165.13;4508086;28;20048;-61
2023/06/01 10:11:34;;;;;;;2.60;2.15;;;;;;;22.40;40.34;101154.84;4520404;28;20048;-61
2023/06/01 10:13:45;;;;;;;2.50;2.05;;;;;;;22.42;40.38;101161.06;4503775;28;20041;-61
2023/06/01 10:15:55;;;;;;;2.55;2.35;;;;;;;22.42;40.02;101158.19;4520103;28;20527;-61
2023/06/01 10:18:07;;;;;;;2.80;2.35;;;;;;;22.40;40.03;101163.47;4484778;28;20286;-61
2023/06/01 10:20:17;;;;;;;2.60;2.33;;;;;;;22.38;39.85;101160.09;4487467;28;20871;-59
2023/06/01 10:22:29;;;;;;;3.20;2.17;;;;;;;22.39;39.82;101153.16;4506914;28;20049;-61
2023/06/01 10:30:17;;;;;;;2.40;2.08;;;;;;;22.41;40.61;101156.50;4383777;28;20556;-62
2023/06/01 10:32:37;;;;;;;3.35;2.30;;;;;;;22.41;40.71;101156.50;4410014;28;20071;-61
2023/06/01 10:34:47;;;;;;;2.28;2.08;;;;;;;22.41;40.88;101150.75;4408612;28;20151;-60
2023/06/01 10:36:58;;;;;;;2.70;2.05;;;;;;;22.41;40.77;101157.34;4408494;28;20035;-61
2023/06/01 10:39:25;;;;;;;2.70;2.45;;;;;;;22.34;39.89;101150.56;4421292;28;20058;-61
2023/06/01 10:41:37;;;;;;;2.58;2.00;;;;;;;22.39;40.00;101153.16;4426070;28;20119;-62
2023/06/01 10:43:48;;;;;;;2.63;2.20;;;;;;;22.40;40.24;101146.22;4417054;28;20040;-62
2023/06/01 10:45:58;;;;;;;2.70;2.25;;;;;;;22.46;40.73;101156.25;4423637;28;20040;-62
2023/06/01 10:48:12;;;;;;;2.97;2.30;;;;;;;22.45;40.56;101141.03;4426766;28;20196;-64
2023/06/01 10:50:22;;;;;;;2.90;2.20;;;;;;;22.49;40.43;101153.47;4427353;28;21246;-62
2023/06/01 10:52:38;;;;;;;2.90;2.20;;;;;;;22.44;41.30;101142.22;4424590;28;20035;-62
2023/06/01 10:54:49;;;;;;;2.33;2.00;;;;;;;22.47;41.40;101153.00;4423487;28;20086;-62
2023/06/01 10:57:25;;;;;;;2.75;2.30;;;;;;;22.49;40.07;101146.88;4416517;28;20044;-64
2023/06/01 10:59:36;;;;;;;3.13;2.42;;;;;;;22.49;40.35;101149.75;4426149;28;20054;-62
2023/06/01 11:01:46;;;;;;;2.53;2.10;;;;;;;22.42;40.17;101138.06;4424074;28;20052;-62
2023/06/01 11:03:58;;;;;;;2.38;2.10;;;;;;;22.49;40.85;101144.84;4423862;28;20067;-62
2023/06/01 11:06:31;;;;;;;2.58;2.30;;;;;;;22.50;41.14;101142.81;4424504;28;20040;-62
2023/06/01 11:08:41;;;;;;;2.67;2.20;;;;;;;22.50;40.56;101137.06;4425911;28;20036;-62
2023/06/01 11:10:58;;;;;;;2.83;2.40;;;;;;;22.49;40.90;101144.00;4423964;28;20024;-62
2023/06/01 11:13:17;;;;;;;3.17;2.30;;;;;;;22.49;40.50;101138.25;4423031;28;20051;-62
2023/06/01 11:15:28;;;;;;;3.28;2.40;;;;;;;22.48;40.53;101134.56;4425828;28;20196;-62
2023/06/01 11:17:39;;;;;;;3.53;2.53;;;;;;;22.49;39.99;101139.09;4427115;28;20158;-61
2023/06/01 11:19:57;;;;;;;3.30;2.47;;;;;;;22.50;40.73;101142.81;4424831;28;20178;-62
2023/06/01 11:22:08;;;;;;;3.97;2.53;;;;;;;22.50;40.53;101139.94;4423814;28;20036;-62
2023/06/01 11:24:19;;;;;;;2.60;2.28;;;;;;;22.50;40.18;101131.31;4407676;28;20017;-61
2023/06/01 11:26:32;;;;;;;2.70;2.30;;;;;;;22.50;40.84;101139.94;4424227;28;20119;-61
2023/06/01 11:28:43;;;;;;;2.97;2.40;;;;;;;22.50;40.33;101134.19;4422958;28;20035;-62
2023/06/01 11:30:55;;;;;;;2.85;2.13;;;;;;;22.50;40.14;101148.56;4423944;28;20039;-61
2023/06/01 11:33:07;;;;;;;3.10;2.55;;;;;;;22.51;40.59;101150.22;4423894;28;20693;-62
2023/06/01 11:35:19;;;;;;;3.33;2.20;;;;;;;22.50;40.11;101142.81;4423673;28;20036;-61
2023/06/01 11:37:32;;;;;;;2.97;2.40;;;;;;;22.40;40.90;101121.16;4424608;28;20114;-62
2023/06/01 11:39:42;;;;;;;3.33;2.30;;;;;;;22.51;41.04;101141.59;4423715;28;20043;-64
2023/06/01 11:42:08;;;;;;;2.63;2.28;;;;;;;22.51;41.00;101132.97;4398883;28;20028;-62
2023/06/01 11:44:19;;;;;;;2.83;2.40;;;;;;;22.51;41.06;101132.97;4426990;28;20046;-62
2023/06/01 11:46:30;;;;;;;2.97;2.25;;;;;;;22.51;40.36;101133.81;4410016;28;20028;-62
2023/06/01 11:48:40;;;;;;;2.78;2.45;;;;;;;22.52;40.86;101134.66;4427484;28;20504;-62
2023/06/01 11:50:51;;;;;;;3.22;2.40;;;;;;;22.52;40.96;101128.91;4427952;28;20535;-62
2023/06/01 11:53:01;;;;;;;3.30;2.50;;;;;;;22.52;41.17;101135.50;4428131;28;20114;-64
2023/06/01 11:55:13;;;;;;;2.92;2.63;;;;;;;22.52;41.42;101128.91;4427941;28;20038;-62
2023/06/01 11:57:25;;;;;;;2.97;2.40;;;;;;;22.47;41.32;101126.28;4429448;28;20046;-62
2023/06/01 11:59:46;;;;;;;2.83;2.47;;;;;;;22.53;41.58;101133.47;4426571;28;20082;-63
2023/06/01 12:01:57;;;;;;;2.95;2.63;;;;;;;22.52;41.37;101134.66;4429221;28;20555;-62
2023/06/01 12:04:12;;;;;;;3.50;2.50;;;;;;;22.52;41.38;101129.75;4429248;28;20533;-62
2023/06/01 12:06:27;;;;;;;2.80;2.45;;;;;;;22.52;41.48;101129.75;4425995;28;20044;-63
2023/06/01 12:08:37;;;;;;;3.17;2.40;;;;;;;22.52;41.57;101128.91;4403493;28;20133;-62
2023/06/01 12:10:50;;;;;;;2.97;2.50;;;;;;;22.53;41.48;101127.72;4427077;28;20465;-63
2023/06/01 12:13:00;;;;;;;3.00;2.50;;;;;;;22.52;41.41;101121.13;4426646;28;20044;-63
2023/06/01 12:15:15;;;;;;;2.88;2.58;;;;;;;22.49;41.46;101118.09;4414747;28;20028;-62
2023/06/01 12:17:45;;;;;;;2.88;2.58;;;;;;;22.52;41.59;101120.28;4427460;28;20039;-62
2023/06/01 12:19:56;;;;;;;3.72;2.72;;;;;;;22.52;40.95;101124.00;4427524;28;20061;-62
2023/06/01 12:22:06;;;;;;;3.22;2.83;;;;;;;22.53;41.08;101124.84;4427500;28;20031;-62